CYFBCYXP

Guest
Details From CYFB - Iqaluit
To CYXP - Pangnirtung
Flight Number -
Tags generated
Created
Modified
Stats Distance 211 nm / 390 km
Max Altitude 23,700 ft / 7,224 m
Waypoints 4
Social Downloads 0
Likes 0
Share VATSIM

Download

Looking for another format? Having issues loading an existing format? Contact us
Advertisement - Login to hide

Notes

Basic altitude profile: - Ascent Rate: 2500ft/min - Ascent Speed: 250kts - Cruise Altitude: 35000ft - Cruise Speed: 420kts - Descent Rate: 1500ft/min - Descent Speed: 250kts Options: - Use NATs: yes - Use PACOTS: yes - Use low airways: yes - Use high airways: yes

Route

CYFB RUDGA 6500N06500W CYXP

ID Type Via Altitude Latitude Longitude Leg Dist Tot Dist Heading (true) Name
O CYFB APT - 0 ft / 0 m 63.75657˚ -68.55606˚ - 0 nm - Iqaluit
RUDGA FIX - 23,700 ft / 7,224 m 64.33333˚ -65.00000˚ 99 nm 99 nm 68° / 71° -
6500N06500W LATLON - 15,200 ft / 4,633 m 65.00000˚ -65.00000˚ 40 nm 139 nm 0° / 360° -
O CYXP APT - 0 ft / 0 m 66.14494˚ -65.71313˚ 71 nm 210 nm 346° / 345° Pangnirtung

Altitude Profile

Advertisement - Login to hide

Weather


0- 5 10 15 20 25 30 35+ Temperature / ° C

Clouds and Precipitation
Forecast for 2018-05-22 12:00 UTC. Updated 5 hours ago

Ground ~20,000 ft ~40,000 ft Winds

CYFB

Details ICAO CYFB (YFB)
Name Iqaluit
Region Canada
Timezone America/Iqaluit (UTC-4.0)
Stats Elevation 110 ft / 34 m (AMSL)
Location 63.756565° -68.556058°
Runways 1
Magnetic Variation 27.374° W

METAR

CYFB 221600Z 33019KT 6SM -SN BKN014 OVC028 M05/M08 A2977 RMK SN3SC3SC2 SLP086

Decode

TAF

TAF CYFB 221138Z 2212/2312 32015KT P6SM -SN FEW020 OVC040 TEMPO 2212/2224 4SM -SN OVC020 BECMG 2214/2216 33020G30KT FM230000 32012KT P6SM FEW020 BKN040 TEMPO 2300/2312 P6SM -SN BKN020 OVC040 RMK NXT FCST BY 221800Z

Decode

Departure Runways

ID Width Length Bearing (true) Bearing (mag) Surface Threshold Offset Overrun Length
17 200 ft / 61 m 8,605 ft / 2,623 m 135.58° 162.95° Asphalt 0 ft / 0 m 210 ft / 64 m
35 200 ft / 61 m 8,605 ft / 2,623 m 315.62° 342.99° Asphalt 0 ft / 0 m 243 ft / 74 m

CYXP

Details ICAO CYXP (YXP)
Name Pangnirtung
Region Canada
Timezone Unknown (UTC+0.0)
Stats Elevation 73 ft / 22 m (AMSL)
Location 66.144940° -65.713130°
Runways 1
Magnetic Variation 30.339° W

METAR

CYXP 221600Z 26008KT 15SM FEW027 FEW220 M04/M06 A2969 RMK CU1CI1 CU TR SLP058

Decode

TAF

TAF CYXP 221238Z 2213/2222 25005KT P6SM FEW002 SCT030 RMK NXT FCST BY 221900Z

Decode

Destination Runways

ID Width Length Bearing (true) Bearing (mag) Surface Threshold Offset Overrun Length
06T 98 ft / 30 m 2,919 ft / 890 m 60.95° 91.29° Gravel 0 ft / 0 m 0 ft / 0 m
24T 98 ft / 30 m 2,919 ft / 890 m 240.97° 271.31° Gravel 0 ft / 0 m 0 ft / 0 m

Popular Alternatives